Time;durP1;ratioP1;P1;durP2;ratioP2;P2;SDS_P1;SDS_P2;PMS_P1;PMS_P2;Temp;Humidity;BMP_temperature;BMP_pressure;BME280_temperature;BME280_humidity;BME280_pressure;Samples;Min_cycle;Max_cycle;Signal;HPM_P1;HPM_P2
2023/09/07 00:00:35;;;;;;;3.13;2.00;;;22.40;99.90;;;;;;4133141;28;20277;-83
2023/09/07 00:02:36;;;;;;;5.22;2.05;;;22.40;99.90;;;;;;4149220;28;20733;-82
2023/09/07 00:04:37;;;;;;;5.05;2.90;;;22.30;99.90;;;;;;4166620;28;20578;-82
2023/09/07 00:06:38;;;;;;;6.63;2.70;;;22.30;99.90;;;;;;4133051;28;20189;-82
2023/09/07 00:08:39;;;;;;;4.30;2.20;;;22.30;99.90;;;;;;4166846;28;20272;-92
2023/09/07 00:10:40;;;;;;;5.97;2.65;;;22.30;99.90;;;;;;4149259;28;20280;-82
2023/09/07 00:12:41;;;;;;;5.95;2.40;;;22.30;99.90;;;;;;4149208;28;20216;-82
2023/09/07 00:14:41;;;;;;;6.65;2.60;;;22.40;99.90;;;;;;4148936;28;20285;-82
2023/09/07 00:16:42;;;;;;;9.75;2.55;;;22.30;99.90;;;;;;4149444;28;20692;-92
2023/09/07 00:18:43;;;;;;;5.80;2.85;;;22.20;99.90;;;;;;4166575;28;20223;-82
2023/09/07 00:20:43;;;;;;;3.47;2.47;;;22.00;99.90;;;;;;4166136;28;20211;-91
2023/09/07 00:22:44;;;;;;;4.13;2.47;;;22.00;99.90;;;;;;4148863;28;20193;-83
2023/09/07 00:24:46;;;;;;;5.72;2.30;;;21.90;99.90;;;;;;4132477;28;20185;-82
2023/09/07 00:26:46;;;;;;;4.65;2.35;;;21.80;99.90;;;;;;4148637;28;20220;-82
2023/09/07 00:28:47;;;;;;;5.32;2.72;;;21.80;99.90;;;;;;4148770;28;20177;-82
2023/09/07 00:30:48;;;;;;;4.45;2.40;;;21.80;99.90;;;;;;4148908;28;20647;-91
2023/09/07 00:32:49;;;;;;;3.65;2.17;;;21.90;99.90;;;;;;4166205;28;20282;-82
2023/09/07 00:34:49;;;;;;;6.57;2.28;;;21.80;99.90;;;;;;4132877;28;20272;-82
2023/09/07 00:36:50;;;;;;;5.47;2.28;;;21.70;99.90;;;;;;4132473;28;20204;-82
2023/09/07 00:38:51;;;;;;;5.72;2.38;;;21.90;99.90;;;;;;4132574;28;20178;-82
2023/09/07 00:40:51;;;;;;;3.55;2.10;;;22.10;99.90;;;;;;4148967;28;20185;-82
2023/09/07 00:42:53;;;;;;;3.25;1.55;;;22.30;99.90;;;;;;4132371;28;20220;-82
2023/09/07 00:44:54;;;;;;;2.33;1.55;;;22.10;99.90;;;;;;4148553;28;20192;-82
2023/09/07 00:46:56;;;;;;;2.78;1.63;;;22.10;99.90;;;;;;4148756;28;20187;-83
2023/09/07 00:48:57;;;;;;;4.10;1.85;;;22.00;99.90;;;;;;4148649;28;20263;-82
2023/09/07 00:50:59;;;;;;;3.50;2.13;;;22.00;99.90;;;;;;4148500;28;20181;-82
2023/09/07 00:53:00;;;;;;;3.50;2.10;;;21.80;99.90;;;;;;4132170;28;20600;-83
2023/09/07 00:55:04;;;;;;;2.42;1.70;;;21.60;99.90;;;;;;4148648;28;20185;-83
2023/09/07 00:57:06;;;;;;;3.60;1.92;;;21.60;99.90;;;;;;4148560;28;20188;-82
2023/09/07 00:59:08;;;;;;;2.80;1.67;;;21.60;99.90;;;;;;4132032;28;20675;-83
2023/09/07 01:01:09;;;;;;;2.55;1.90;;;21.60;99.90;;;;;;4148241;28;20189;-82
2023/09/07 01:03:09;;;;;;;2.95;1.80;;;21.70;99.90;;;;;;4165835;28;20335;-82
2023/09/07 01:05:11;;;;;;;2.72;1.58;;;21.60;99.90;;;;;;4148387;28;20231;-84
2023/09/07 01:07:23;;;;;;;3.88;2.00;;;21.60;99.90;;;;;;4148276;28;20181;-82
2023/09/07 01:09:28;;;;;;;3.92;2.13;;;21.70;99.90;;;;;;4148117;28;20176;-82
2023/09/07 01:11:37;;;;;;;3.60;2.10;;;21.60;99.90;;;;;;4164793;28;20275;-82
2023/09/07 01:13:37;;;;;;;2.88;1.73;;;21.70;99.90;;;;;;4147878;28;20251;-88
2023/09/07 01:15:38;;;;;;;2.70;1.77;;;21.70;99.90;;;;;;4165769;28;20655;-82
2023/09/07 01:17:40;;;;;;;5.38;1.75;;;21.60;99.90;;;;;;4165744;28;20259;-93
2023/09/07 01:19:41;;;;;;;3.00;1.92;;;21.50;99.90;;;;;;4148278;28;20705;-82
2023/09/07 01:21:43;;;;;;;5.18;2.25;;;21.40;99.90;;;;;;4148197;28;20181;-82
2023/09/07 01:23:46;;;;;;;6.22;2.03;;;21.30;99.90;;;;;;4147950;28;20271;-94
2023/09/07 01:25:48;;;;;;;5.13;2.17;;;21.30;99.90;;;;;;4148250;28;20619;-82
2023/09/07 01:27:50;;;;;;;3.28;1.80;;;21.40;99.90;;;;;;4148265;28;20177;-93
2023/09/07 01:29:52;;;;;;;3.40;1.90;;;21.80;99.90;;;;;;4164893;28;20180;-83
2023/09/07 01:31:52;;;;;;;4.82;1.70;;;22.00;99.90;;;;;;4131226;28;20224;-92
2023/09/07 01:33:53;;;;;;;2.55;1.30;;;22.00;99.90;;;;;;4147809;28;20614;-87
2023/09/07 01:36:00;;;;;;;3.55;2.08;;;21.90;99.90;;;;;;4131648;28;20560;-84
2023/09/07 01:38:01;;;;;;;3.53;2.00;;;21.80;99.90;;;;;;4147980;28;20192;-93
2023/09/07 01:40:07;;;;;;;4.22;1.83;;;21.70;99.90;;;;;;4147863;28;20172;-94
2023/09/07 01:42:07;;;;;;;3.50;1.48;;;21.60;99.90;;;;;;4131593;28;20604;-82
2023/09/07 01:44:08;;;;;;;4.05;1.98;;;21.60;99.90;;;;;;4148065;28;20235;-83
2023/09/07 01:46:09;;;;;;;3.20;1.85;;;21.80;99.90;;;;;;4147860;28;20181;-82
2023/09/07 01:48:12;;;;;;;3.00;1.60;;;21.80;99.90;;;;;;4147898;28;20188;-82
2023/09/07 01:50:14;;;;;;;3.20;1.67;;;21.90;99.90;;;;;;4148075;28;20184;-82
2023/09/07 01:52:15;;;;;;;4.93;1.85;;;21.90;99.90;;;;;;4131609;28;20289;-83
2023/09/07 01:54:16;;;;;;;3.67;1.92;;;21.80;99.90;;;;;;4147628;28;20189;-83
2023/09/07 01:56:17;;;;;;;4.50;1.90;;;21.80;99.90;;;;;;4147786;28;20173;-82
2023/09/07 01:58:18;;;;;;;4.28;1.85;;;21.90;99.90;;;;;;4147836;28;20184;-93
2023/09/07 02:00:19;;;;;;;3.30;1.98;;;22.10;99.90;;;;;;4147767;28;20180;-92
2023/09/07 02:02:19;;;;;;;1.98;1.42;;;22.10;99.90;;;;;;4131391;28;20197;-93
2023/09/07 02:04:20;;;;;;;3.08;1.55;;;21.70;99.90;;;;;;4147639;28;20185;-83
2023/09/07 02:06:21;;;;;;;4.45;1.70;;;21.60;99.90;;;;;;4147692;28;20675;-93
2023/09/07 02:08:22;;;;;;;3.38;1.58;;;21.50;99.90;;;;;;4147673;28;20192;-83
2023/09/07 02:10:23;;;;;;;3.40;2.30;;;21.40;99.90;;;;;;4131354;28;20185;-82
2023/09/07 02:12:24;;;;;;;2.30;1.65;;;21.60;99.90;;;;;;4131223;28;20217;-91
2023/09/07 02:14:25;;;;;;;5.65;2.20;;;22.00;99.90;;;;;;4164917;28;20211;-82
2023/09/07 02:16:26;;;;;;;3.08;1.70;;;22.10;99.90;;;;;;4147420;28;20253;-82
2023/09/07 02:18:27;;;;;;;4.22;2.00;;;21.80;99.90;;;;;;4147816;28;20185;-82
2023/09/07 02:20:28;;;;;;;6.65;1.75;;;21.80;99.90;;;;;;4147633;28;20599;-82
2023/09/07 02:22:28;;;;;;;3.05;1.70;;;21.80;99.90;;;;;;4147549;28;20607;-82
2023/09/07 02:24:29;;;;;;;3.08;1.83;;;21.60;99.90;;;;;;4131160;28;20185;-82
2023/09/07 02:26:30;;;;;;;3.28;1.67;;;21.50;99.90;;;;;;4131275;28;20320;-83
2023/09/07 02:28:32;;;;;;;4.97;1.60;;;21.30;99.90;;;;;;4147366;28;20177;-82
2023/09/07 02:30:32;;;;;;;2.92;1.40;;;21.20;99.90;;;;;;4147470;28;20188;-82
2023/09/07 02:32:33;;;;;;;2.33;1.25;;;21.20;99.90;;;;;;4147297;28;20212;-82
2023/09/07 02:34:36;;;;;;;2.65;1.70;;;21.20;99.90;;;;;;4147515;28;20572;-82
2023/09/07 02:36:37;;;;;;;2.13;1.73;;;21.10;99.90;;;;;;4147456;28;20228;-82
2023/09/07 02:38:38;;;;;;;5.88;1.70;;;21.00;99.90;;;;;;4131282;28;20298;-82
2023/09/07 02:40:42;;;;;;;4.00;2.08;;;21.10;99.90;;;;;;4163696;28;20184;-88
2023/09/07 02:42:43;;;;;;;6.10;2.30;;;21.50;99.90;;;;;;4147251;28;20196;-83
2023/09/07 02:44:43;;;;;;;3.33;1.40;;;21.80;99.90;;;;;;4149714;28;20207;-82
2023/09/07 02:46:44;;;;;;;3.45;1.63;;;21.50;99.90;;;;;;4150456;28;20189;-93
2023/09/07 02:48:45;;;;;;;3.08;1.67;;;21.50;99.90;;;;;;4150424;28;20528;-82
2023/09/07 02:50:50;;;;;;;6.50;2.03;;;21.50;99.90;;;;;;4134219;28;20543;-81
2023/09/07 02:52:51;;;;;;;2.45;1.40;;;21.50;99.90;;;;;;4134268;28;20217;-92
2023/09/07 02:54:51;;;;;;;2.85;1.70;;;21.70;99.90;;;;;;4150434;28;20277;-82
2023/09/07 02:56:52;;;;;;;2.80;1.55;;;21.90;99.90;;;;;;4150559;28;20187;-83
2023/09/07 02:58:53;;;;;;;2.90;1.70;;;22.20;99.90;;;;;;4150449;28;20566;-82
2023/09/07 03:00:55;;;;;;;5.60;1.70;;;22.20;99.90;;;;;;4150307;28;20188;-82
2023/09/07 03:02:58;;;;;;;3.72;1.85;;;21.90;99.90;;;;;;4134154;28;20324;-82
2023/09/07 03:04:58;;;;;;;3.03;1.40;;;22.00;99.90;;;;;;4133857;28;20182;-82
2023/09/07 03:07:03;;;;;;;4.75;1.77;;;22.10;99.90;;;;;;4134114;28;20185;-91
2023/09/07 03:09:08;;;;;;;2.67;1.42;;;22.20;99.90;;;;;;4150403;28;20239;-82
2023/09/07 03:11:10;;;;;;;3.75;1.70;;;22.20;99.90;;;;;;4150440;28;20280;-82
2023/09/07 03:13:10;;;;;;;4.25;1.50;;;22.00;99.90;;;;;;4150143;28;20595;-82
2023/09/07 03:15:12;;;;;;;2.35;1.48;;;22.00;99.90;;;;;;4134073;28;20256;-83
2023/09/07 03:17:16;;;;;;;2.97;1.70;;;22.00;99.90;;;;;;4134015;28;20190;-82
2023/09/07 03:19:17;;;;;;;3.42;1.48;;;22.00;99.90;;;;;;4150198;28;20177;-83
2023/09/07 03:21:18;;;;;;;2.28;1.38;;;22.00;99.90;;;;;;4150140;28;20189;-92
2023/09/07 03:23:19;;;;;;;4.63;1.90;;;21.70;99.90;;;;;;4133486;28;20233;-82
2023/09/07 03:25:20;;;;;;;2.35;1.38;;;21.40;99.90;;;;;;4149459;28;20228;-82
2023/09/07 03:27:21;;;;;;;2.58;1.40;;;21.40;99.90;;;;;;4133724;28;20182;-81
2023/09/07 03:29:22;;;;;;;3.08;1.50;;;21.40;99.90;;;;;;4166346;28;20187;-82
2023/09/07 03:31:23;;;;;;;3.65;1.63;;;21.50;99.90;;;;;;4149986;28;20209;-92
2023/09/07 03:33:24;;;;;;;1.95;1.40;;;21.40;99.90;;;;;;4133713;28;20651;-82
2023/09/07 03:35:26;;;;;;;2.80;1.58;;;21.40;99.90;;;;;;4150097;28;20216;-92
2023/09/07 03:37:28;;;;;;;3.28;1.52;;;21.50;99.90;;;;;;4149533;28;20307;-82
2023/09/07 03:39:29;;;;;;;2.72;1.48;;;21.50;99.90;;;;;;4149872;28;20272;-83
2023/09/07 03:41:30;;;;;;;2.30;1.58;;;21.50;99.90;;;;;;4149847;28;20551;-82
2023/09/07 03:43:32;;;;;;;3.80;1.60;;;21.20;99.90;;;;;;4149732;28;20259;-82
2023/09/07 03:45:32;;;;;;;3.85;1.92;;;21.40;99.90;;;;;;4149689;28;20180;-82
2023/09/07 03:47:34;;;;;;;4.40;2.00;;;21.40;99.90;;;;;;4149563;28;20207;-82
2023/09/07 03:49:36;;;;;;;3.65;1.55;;;21.40;99.90;;;;;;4133371;28;20738;-82
2023/09/07 03:51:37;;;;;;;4.20;1.60;;;21.30;99.90;;;;;;4149443;28;20185;-82
2023/09/07 03:53:38;;;;;;;2.95;1.40;;;21.40;99.90;;;;;;4149373;28;20330;-82
2023/09/07 03:55:43;;;;;;;2.50;1.48;;;21.40;99.90;;;;;;4148415;28;20271;-82
2023/09/07 03:57:44;;;;;;;4.22;1.75;;;21.40;99.90;;;;;;4149262;28;20192;-82
2023/09/07 03:59:46;;;;;;;2.80;1.52;;;21.40;99.90;;;;;;4149394;28;20189;-82
2023/09/07 04:01:47;;;;;;;3.47;1.77;;;21.50;99.90;;;;;;4149391;28;20184;-83
2023/09/07 04:03:47;;;;;;;2.83;1.58;;;21.50;99.90;;;;;;4133338;28;20252;-83
2023/09/07 04:05:50;;;;;;;4.63;2.10;;;21.30;99.90;;;;;;4149532;28;20176;-90
2023/09/07 04:07:51;;;;;;;3.63;2.10;;;21.20;99.90;;;;;;4149419;28;20195;-92
2023/09/07 04:09:52;;;;;;;3.95;1.85;;;21.10;99.90;;;;;;4149381;28;20570;-85
2023/09/07 04:11:52;;;;;;;7.72;2.00;;;21.00;99.90;;;;;;4149171;28;20189;-82
2023/09/07 04:13:53;;;;;;;3.63;1.95;;;20.90;99.90;;;;;;4148829;28;20845;-82
2023/09/07 04:15:54;;;;;;;3.15;1.98;;;20.90;99.90;;;;;;4166819;28;20227;-82
2023/09/07 04:17:54;;;;;;;4.40;1.90;;;20.90;99.90;;;;;;4166729;28;20176;-82
2023/09/07 04:19:56;;;;;;;3.45;1.67;;;20.90;99.90;;;;;;4132890;28;20267;-91
2023/09/07 04:21:58;;;;;;;3.72;1.98;;;20.90;99.90;;;;;;4132760;28;20241;-82
2023/09/07 04:23:59;;;;;;;3.75;1.85;;;21.00;99.90;;;;;;4132627;28;20181;-88
2023/09/07 04:26:11;;;;;;;3.28;1.73;;;21.00;99.90;;;;;;4148838;28;20208;-82
2023/09/07 04:28:12;;;;;;;3.70;1.95;;;21.00;99.90;;;;;;4149013;28;20551;-82
2023/09/07 04:30:12;;;;;;;3.92;1.80;;;21.00;99.90;;;;;;4149117;28;20185;-92
2023/09/07 04:32:13;;;;;;;3.17;1.85;;;20.80;99.90;;;;;;4148862;28;20229;-82
2023/09/07 04:34:14;;;;;;;3.88;2.00;;;20.70;99.90;;;;;;4132815;28;20260;-82
2023/09/07 04:36:15;;;;;;;2.90;1.65;;;20.60;99.90;;;;;;4132673;28;20177;-82
2023/09/07 04:38:19;;;;;;;2.75;1.52;;;20.70;99.90;;;;;;4133458;28;20205;-92
2023/09/07 04:40:20;;;;;;;4.10;1.73;;;20.80;99.90;;;;;;4132773;28;20186;-82
2023/09/07 04:42:21;;;;;;;4.72;2.03;;;20.90;99.90;;;;;;4132311;28;20268;-82
2023/09/07 04:44:21;;;;;;;3.20;1.77;;;20.80;99.90;;;;;;4164793;28;20322;-82
2023/09/07 04:46:23;;;;;;;4.25;2.25;;;20.90;99.90;;;;;;4132425;28;20185;-82
2023/09/07 04:48:24;;;;;;;4.05;1.40;;;20.70;99.90;;;;;;4132509;28;20188;-82
2023/09/07 04:50:25;;;;;;;4.18;2.13;;;20.70;99.90;;;;;;4148596;28;20181;-82
2023/09/07 04:52:26;;;;;;;4.15;1.83;;;20.30;99.90;;;;;;4164998;28;20800;-82
2023/09/07 04:54:27;;;;;;;7.50;2.05;;;19.90;99.90;;;;;;4132383;28;20185;-82
2023/09/07 04:56:28;;;;;;;2.92;1.70;;;19.70;99.90;;;;;;4148528;28;20185;-82
2023/09/07 04:58:30;;;;;;;3.55;1.88;;;19.80;99.90;;;;;;4148410;28;20229;-92
2023/09/07 05:00:31;;;;;;;3.22;1.60;;;20.00;99.90;;;;;;4148527;28;20653;-90
2023/09/07 05:02:32;;;;;;;3.83;1.98;;;19.80;99.90;;;;;;4132342;28;20216;-82
2023/09/07 05:04:32;;;;;;;3.40;2.08;;;20.00;99.90;;;;;;4148696;28;20219;-86
2023/09/07 05:06:37;;;;;;;3.13;1.63;;;20.00;99.90;;;;;;4131910;28;20181;-83
2023/09/07 05:08:39;;;;;;;3.58;1.90;;;19.80;99.90;;;;;;4132412;28;20186;-82
2023/09/07 05:10:40;;;;;;;3.25;1.70;;;19.70;99.90;;;;;;4132260;28;20272;-82
2023/09/07 05:12:41;;;;;;;2.33;1.73;;;19.50;99.90;;;;;;4148072;28;20208;-84
2023/09/07 05:14:41;;;;;;;3.28;1.80;;;19.30;99.90;;;;;;4148096;28;20685;-83
2023/09/07 05:16:43;;;;;;;4.40;1.40;;;19.20;99.90;;;;;;4148038;28;20550;-83
2023/09/07 05:18:44;;;;;;;3.88;1.98;;;19.10;99.90;;;;;;4132081;28;20272;-95
2023/09/07 05:20:48;;;;;;;2.65;1.95;;;19.10;99.90;;;;;;4148373;28;20173;-93
2023/09/07 05:22:49;;;;;;;2.92;1.90;;;19.60;99.90;;;;;;4148115;28;20663;-83
2023/09/07 05:24:50;;;;;;;7.03;2.50;;;20.10;99.90;;;;;;4148014;28;20181;-83
2023/09/07 05:26:51;;;;;;;3.70;2.20;;;20.30;99.90;;;;;;4165476;28;20206;-83
2023/09/07 05:28:52;;;;;;;5.30;2.53;;;20.40;99.90;;;;;;4131895;28;20189;-83
2023/09/07 05:30:53;;;;;;;2.65;1.70;;;20.40;99.90;;;;;;4147900;28;20761;-93
2023/09/07 05:32:56;;;;;;;4.57;2.35;;;20.50;99.90;;;;;;4131761;28;20421;-93
2023/09/07 05:34:57;;;;;;;4.68;1.83;;;20.50;99.90;;;;;;4147834;28;20207;-83
2023/09/07 05:36:58;;;;;;;4.07;2.55;;;20.50;99.90;;;;;;4165055;28;20194;-92
2023/09/07 05:38:59;;;;;;;5.03;2.10;;;20.50;99.90;;;;;;4131479;28;20173;-83
2023/09/07 05:41:00;;;;;;;3.72;1.77;;;20.40;99.90;;;;;;4148192;28;20682;-83
2023/09/07 05:43:01;;;;;;;3.67;2.35;;;20.40;99.90;;;;;;4147737;28;20239;-82
2023/09/07 05:45:03;;;;;;;4.03;2.60;;;20.30;99.90;;;;;;4147762;28;20279;-81
2023/09/07 05:47:04;;;;;;;2.90;1.63;;;20.30;99.90;;;;;;4131461;28;20204;-92
2023/09/07 05:49:05;;;;;;;7.30;2.97;;;20.30;99.90;;;;;;4165115;28;20178;-92
2023/09/07 05:51:06;;;;;;;4.43;2.42;;;20.40;99.90;;;;;;4131325;28;20201;-82
2023/09/07 05:53:07;;;;;;;4.30;2.08;;;20.40;99.90;;;;;;4147688;28;20352;-83
2023/09/07 05:55:08;;;;;;;4.60;2.33;;;20.40;99.90;;;;;;4147674;28;20180;-82
2023/09/07 05:57:09;;;;;;;3.78;2.40;;;20.50;99.90;;;;;;4148013;28;20554;-82
2023/09/07 05:59:10;;;;;;;5.07;2.50;;;20.50;99.90;;;;;;4131668;28;20178;-92
2023/09/07 06:01:10;;;;;;;3.30;2.00;;;20.50;99.90;;;;;;4131456;28;20192;-85
2023/09/07 06:03:11;;;;;;;3.95;2.28;;;20.40;99.90;;;;;;4163849;28;20192;-83
2023/09/07 06:05:13;;;;;;;5.18;2.80;;;20.40;99.90;;;;;;4147896;28;20185;-94
2023/09/07 06:07:14;;;;;;;5.55;2.30;;;20.40;99.90;;;;;;4148050;28;20232;-93
2023/09/07 06:09:15;;;;;;;5.75;2.45;;;20.40;99.90;;;;;;4147482;28;20188;-82
2023/09/07 06:11:16;;;;;;;6.90;2.20;;;20.50;99.90;;;;;;4147490;28;20180;-82
2023/09/07 06:13:17;;;;;;;3.95;2.40;;;20.40;99.90;;;;;;4147217;28;20212;-83
2023/09/07 06:15:18;;;;;;;3.92;2.78;;;20.40;99.90;;;;;;4147704;28;20231;-85
2023/09/07 06:17:19;;;;;;;7.10;2.40;;;20.40;99.90;;;;;;4131320;28;20185;-82
2023/09/07 06:19:20;;;;;;;8.10;2.92;;;20.40;99.90;;;;;;4130731;28;20648;-82
2023/09/07 06:21:21;;;;;;;3.85;2.05;;;20.40;99.90;;;;;;4147607;28;20201;-82
2023/09/07 06:23:21;;;;;;;5.03;2.60;;;20.40;99.90;;;;;;4131348;28;20205;-83
2023/09/07 06:25:22;;;;;;;4.72;2.63;;;20.30;99.90;;;;;;4163708;28;20215;-92
2023/09/07 06:27:23;;;;;;;8.23;3.05;;;20.40;99.90;;;;;;4131074;28;20264;-82
2023/09/07 06:29:24;;;;;;;3.28;2.22;;;20.40;99.90;;;;;;4163617;28;20263;-82
2023/09/07 06:31:25;;;;;;;4.63;2.40;;;20.40;99.90;;;;;;4131175;28;20272;-83
2023/09/07 06:33:25;;;;;;;4.43;2.17;;;20.40;99.90;;;;;;4131000;28;20252;-83
2023/09/07 06:35:26;;;;;;;4.80;2.70;;;20.30;99.90;;;;;;4131137;28;20571;-82
2023/09/07 06:37:28;;;;;;;4.47;2.20;;;20.30;99.90;;;;;;4147405;28;20197;-82
2023/09/07 06:39:29;;;;;;;4.03;2.63;;;20.30;99.90;;;;;;4147470;28;20671;-81
2023/09/07 06:41:29;;;;;;;13.23;2.55;;;20.30;99.90;;;;;;4131115;28;20178;-83
2023/09/07 06:43:31;;;;;;;4.57;2.42;;;20.50;99.90;;;;;;4147177;28;20243;-82
2023/09/07 06:45:35;;;;;;;3.97;2.30;;;20.60;99.90;;;;;;4147584;28;20185;-82
2023/09/07 06:47:37;;;;;;;5.25;2.42;;;20.80;99.90;;;;;;4147132;28;20181;-82
2023/09/07 06:49:38;;;;;;;8.38;2.53;;;20.90;99.90;;;;;;4130929;28;20182;-82
2023/09/07 06:51:39;;;;;;;3.13;2.20;;;21.00;99.90;;;;;;4131214;28;20189;-84
2023/09/07 06:53:41;;;;;;;6.38;2.75;;;21.00;99.90;;;;;;4130735;28;20233;-83
2023/09/07 06:55:42;;;;;;;3.08;2.50;;;21.10;99.90;;;;;;4131211;28;20177;-82
2023/09/07 06:57:43;;;;;;;5.25;2.78;;;21.20;99.90;;;;;;4147374;28;20188;-90
2023/09/07 06:59:43;;;;;;;5.13;2.60;;;21.20;99.90;;;;;;4147009;28;20223;-82
2023/09/07 07:01:44;;;;;;;5.90;2.97;;;21.20;99.90;;;;;;4130714;28;20189;-83
2023/09/07 07:03:45;;;;;;;5.05;2.80;;;21.20;99.90;;;;;;4147102;28;20204;-82
2023/09/07 07:05:46;;;;;;;6.05;2.42;;;21.30;99.90;;;;;;4147134;28;20185;-82
2023/09/07 07:07:47;;;;;;;6.97;3.17;;;21.40;99.90;;;;;;4147403;28;20231;-82
2023/09/07 07:09:48;;;;;;;4.82;2.78;;;21.60;99.90;;;;;;4131226;28;20177;-82
2023/09/07 07:11:49;;;;;;;7.20;3.28;;;22.10;99.90;;;;;;4147042;28;20200;-83
2023/09/07 07:13:50;;;;;;;4.78;2.40;;;23.30;99.90;;;;;;4163379;28;20224;-83
2023/09/07 07:15:51;;;;;;;6.70;2.65;;;24.70;99.90;;;;;;4130982;28;20695;-83
2023/09/07 07:17:52;;;;;;;8.40;2.45;;;25.90;99.90;;;;;;4163478;28;20168;-83
2023/09/07 07:19:53;;;;;;;8.55;3.08;;;26.70;99.90;;;;;;4147088;28;20193;-83
2023/09/07 07:21:54;;;;;;;4.35;2.55;;;27.10;99.90;;;;;;4130629;28;20576;-83
2023/09/07 07:23:55;;;;;;;7.05;2.83;;;27.80;99.90;;;;;;4147100;28;20188;-83
2023/09/07 07:25:56;;;;;;;8.27;2.42;;;28.10;99.90;;;;;;4146829;28;20184;-83
2023/09/07 07:27:59;;;;;;;6.60;2.47;;;28.90;99.90;;;;;;4130804;28;20185;-83
2023/09/07 07:30:00;;;;;;;6.35;2.65;;;29.60;99.90;;;;;;4147091;28;20181;-95
2023/09/07 07:32:01;;;;;;;4.55;2.50;;;30.20;99.90;;;;;;4149554;28;20649;-95
2023/09/07 07:34:02;;;;;;;7.85;2.90;;;30.40;99.90;;;;;;4167285;28;20215;-84
2023/09/07 07:36:04;;;;;;;4.32;2.60;;;30.60;99.90;;;;;;4133961;28;20213;-83
2023/09/07 07:38:07;;;;;;;5.90;2.67;;;30.70;99.90;;;;;;4133357;28;20256;-95
2023/09/07 07:40:09;;;;;;;7.05;3.08;;;31.30;99.90;;;;;;4149746;28;20185;-94
2023/09/07 07:42:09;;;;;;;4.75;2.97;;;31.10;99.90;;;;;;4133426;28;20197;-90
2023/09/07 07:44:10;;;;;;;5.88;2.60;;;31.40;99.90;;;;;;4149352;28;20204;-83
2023/09/07 07:46:11;;;;;;;6.93;3.17;;;31.20;99.90;;;;;;4133665;28;20652;-83
2023/09/07 07:48:12;;;;;;;11.52;2.75;;;31.80;99.90;;;;;;4133202;28;20181;-83
2023/09/07 07:50:16;;;;;;;7.85;5.15;;;32.30;99.90;;;;;;4149599;28;20223;-83
2023/09/07 07:52:19;;;;;;;3.97;2.55;;;32.30;99.90;;;;;;4149427;28;20224;-93
2023/09/07 07:54:20;;;;;;;5.57;2.75;;;32.60;99.90;;;;;;4149379;28;20211;-84
2023/09/07 07:56:20;;;;;;;6.45;2.67;;;32.20;99.90;;;;;;4132911;28;20683;-83
2023/09/07 07:58:23;;;;;;;5.38;2.67;;;31.50;99.90;;;;;;4133403;28;20268;-84
2023/09/07 08:00:24;;;;;;;3.80;2.30;;;32.10;99.90;;;;;;4133277;28;20188;-84
2023/09/07 08:02:28;;;;;;;4.93;2.83;;;32.90;99.90;;;;;;4149565;28;20201;-83
2023/09/07 08:04:29;;;;;;;4.50;3.03;;;33.20;99.90;;;;;;4149414;28;20597;-84
2023/09/07 08:06:30;;;;;;;4.63;2.90;;;32.60;99.90;;;;;;4166893;28;20204;-84
2023/09/07 08:08:31;;;;;;;4.30;2.70;;;33.10;99.90;;;;;;4149478;28;20185;-84
2023/09/07 08:10:36;;;;;;;3.78;2.28;;;32.90;99.90;;;;;;4133157;28;20180;-84
2023/09/07 08:12:37;;;;;;;7.50;2.92;;;33.30;99.90;;;;;;4148861;28;20227;-84
2023/09/07 08:14:40;;;;;;;4.95;2.10;;;32.60;99.90;;;;;;4165354;28;20191;-84
2023/09/07 08:16:41;;;;;;;2.80;1.98;;;32.30;99.90;;;;;;4132899;28;20239;-96
2023/09/07 08:18:42;;;;;;;4.32;2.80;;;32.90;99.90;;;;;;4165390;28;20191;-84
2023/09/07 08:20:43;;;;;;;6.45;2.58;;;32.00;99.90;;;;;;4149066;28;20187;-84
2023/09/07 08:22:45;;;;;;;8.88;3.15;;;32.60;99.90;;;;;;4132660;28;20204;-83
2023/09/07 08:24:48;;;;;;;3.75;2.13;;;31.90;99.90;;;;;;4165543;28;20171;-84
2023/09/07 08:26:54;;;;;;;4.32;2.38;;;31.80;99.90;;;;;;4149342;28;20191;-84
2023/09/07 08:28:54;;;;;;;3.63;2.40;;;32.00;99.90;;;;;;4132741;28;20209;-84
2023/09/07 08:30:55;;;;;;;3.63;2.33;;;32.60;99.90;;;;;;4148908;28;20191;-94
2023/09/07 08:32:56;;;;;;;2.42;1.70;;;32.00;99.90;;;;;;4166242;28;20225;-83
2023/09/07 08:35:00;;;;;;;2.83;2.08;;;31.60;99.90;;;;;;4166303;28;20577;-95
2023/09/07 08:37:01;;;;;;;3.67;2.35;;;31.70;99.90;;;;;;4148504;28;20207;-84
2023/09/07 08:39:05;;;;;;;3.75;1.95;;;30.90;99.90;;;;;;4148711;28;20188;-84
2023/09/07 08:41:08;;;;;;;3.97;2.45;;;31.40;99.90;;;;;;4148258;28;20693;-84
2023/09/07 08:43:11;;;;;;;3.20;2.03;;;31.50;99.90;;;;;;4148747;28;20824;-88
2023/09/07 08:45:18;;;;;;;5.53;1.83;;;31.20;99.90;;;;;;4148631;28;20666;-84
2023/09/07 08:47:20;;;;;;;2.33;1.60;;;31.80;99.90;;;;;;4166030;28;20187;-83
2023/09/07 08:49:23;;;;;;;1.50;1.33;;;32.50;99.90;;;;;;4148705;28;20176;-81
2023/09/07 08:51:27;;;;;;;2.55;1.55;;;33.40;99.90;;;;;;4148584;28;20176;-92
2023/09/07 08:53:31;;;;;;;4.53;1.98;;;34.50;99.90;;;;;;4148615;28;20590;-81
2023/09/07 08:55:33;;;;;;;1.90;1.35;;;33.40;99.90;;;;;;4148492;28;20192;-82
2023/09/07 08:57:34;;;;;;;1.45;1.30;;;33.40;99.90;;;;;;4148365;28;20645;-81
2023/09/07 08:59:36;;;;;;;2.25;1.63;;;33.80;99.90;;;;;;4165988;28;20231;-81
2023/09/07 09:01:37;;;;;;;2.30;1.60;;;33.30;99.90;;;;;;4165803;28;20206;-84
2023/09/07 09:03:37;;;;;;;4.65;1.73;;;32.00;99.90;;;;;;4148434;28;20208;-89
2023/09/07 09:05:43;;;;;;;3.13;1.55;;;32.20;99.90;;;;;;4148698;28;20685;-94
2023/09/07 09:07:43;;;;;;;2.03;1.33;;;32.00;99.90;;;;;;4166115;28;20202;-85
2023/09/07 09:09:44;;;;;;;2.20;1.55;;;32.90;99.90;;;;;;4165856;28;20214;-94
2023/09/07 09:11:45;;;;;;;2.08;1.50;;;33.70;99.90;;;;;;4148699;28;20557;-95
2023/09/07 09:13:46;;;;;;;2.63;1.20;;;34.00;99.90;;;;;;4165548;28;20321;-90
2023/09/07 09:15:48;;;;;;;2.40;1.30;;;33.50;99.90;;;;;;4148317;28;20180;-81
2023/09/07 09:17:48;;;;;;;3.67;1.50;;;32.80;99.90;;;;;;4148431;28;20187;-81
2023/09/07 09:19:49;;;;;;;1.98;1.45;;;32.20;99.90;;;;;;4164487;28;20211;-81
2023/09/07 09:21:50;;;;;;;2.05;1.30;;;32.50;99.90;;;;;;4165703;28;20168;-84
2023/09/07 09:23:53;;;;;;;2.35;1.30;;;33.20;99.90;;;;;;4131916;28;20185;-83
2023/09/07 09:25:53;;;;;;;2.92;1.38;;;32.50;99.90;;;;;;4148174;28;20184;-83
2023/09/07 09:27:54;;;;;;;2.05;1.50;;;32.00;99.90;;;;;;4148068;28;20191;-94
2023/09/07 09:29:56;;;;;;;2.53;1.50;;;32.10;99.90;;;;;;4165521;28;20187;-84
2023/09/07 09:31:57;;;;;;;4.88;1.52;;;32.60;99.90;;;;;;4165343;28;20642;-83
2023/09/07 09:33:58;;;;;;;2.55;1.63;;;32.80;99.90;;;;;;4147980;28;20215;-84
2023/09/07 09:36:00;;;;;;;1.48;1.25;;;32.80;99.90;;;;;;4131482;28;20267;-92
2023/09/07 09:38:04;;;;;;;1.88;1.40;;;33.40;99.90;;;;;;4165305;28;20198;-92
2023/09/07 09:40:05;;;;;;;3.25;1.50;;;33.40;99.90;;;;;;4132108;28;20181;-83
2023/09/07 09:42:06;;;;;;;1.58;1.33;;;32.30;99.90;;;;;;4165570;28;20187;-94
2023/09/07 09:44:08;;;;;;;1.63;1.40;;;32.00;99.90;;;;;;4147963;28;20172;-81
2023/09/07 09:46:10;;;;;;;1.85;1.23;;;32.00;99.90;;;;;;4147817;28;20552;-81
2023/09/07 09:48:11;;;;;;;4.03;1.40;;;32.40;99.90;;;;;;4147869;28;20191;-92
2023/09/07 09:50:12;;;;;;;1.30;1.10;;;32.80;99.90;;;;;;4147845;28;20260;-82
2023/09/07 09:52:13;;;;;;;2.70;1.45;;;33.10;99.90;;;;;;4165327;28;20203;-82
2023/09/07 09:54:19;;;;;;;2.17;1.60;;;33.10;99.90;;;;;;4164317;28;20259;-81
2023/09/07 09:56:20;;;;;;;2.60;1.65;;;33.40;99.90;;;;;;4131439;28;20674;-81
2023/09/07 09:58:21;;;;;;;3.72;1.38;;;33.50;99.90;;;;;;4131210;28;20285;-81
2023/09/07 10:00:28;;;;;;;1.90;1.38;;;33.60;99.90;;;;;;4147734;28;20209;-82
2023/09/07 10:02:29;;;;;;;5.63;1.30;;;33.60;99.90;;;;;;4131408;28;20215;-81
2023/09/07 10:04:31;;;;;;;3.53;1.50;;;33.30;99.90;;;;;;4147830;28;20686;-82
2023/09/07 10:06:33;;;;;;;2.30;1.50;;;33.20;99.90;;;;;;4147848;28;20187;-81
2023/09/07 10:08:34;;;;;;;2.00;1.38;;;32.80;99.90;;;;;;4131286;28;20662;-81
2023/09/07 10:10:36;;;;;;;3.67;1.60;;;32.20;99.90;;;;;;4165040;28;20187;-83
2023/09/07 10:12:44;;;;;;;2.13;1.40;;;32.20;99.90;;;;;;4146950;28;20204;-83
2023/09/07 10:14:50;;;;;;;1.38;1.00;;;31.50;99.90;;;;;;4147864;28;20195;-94
2023/09/07 10:16:55;;;;;;;2.55;1.63;;;30.80;99.90;;;;;;4147707;28;20279;-82
2023/09/07 10:18:56;;;;;;;2.63;1.23;;;30.80;99.90;;;;;;4147393;28;20192;-82
2023/09/07 10:20:58;;;;;;;3.60;1.38;;;30.30;99.90;;;;;;4147577;28;20188;-83
2023/09/07 10:23:05;;;;;;;3.00;1.60;;;29.80;99.90;;;;;;4147457;28;20196;-83
2023/09/07 10:25:11;;;;;;;1.60;1.27;;;29.80;99.90;;;;;;4147353;28;20196;-83
2023/09/07 10:27:12;;;;;;;4.43;1.20;;;29.80;99.90;;;;;;4147758;28;20181;-94
2023/09/07 10:29:13;;;;;;;2.30;1.48;;;29.80;99.90;;;;;;4164863;28;20654;-85
2023/09/07 10:31:17;;;;;;;3.00;1.48;;;29.90;99.90;;;;;;4131104;28;20182;-84
2023/09/07 10:33:21;;;;;;;4.00;1.50;;;29.70;99.90;;;;;;4163499;28;20732;-94